createdAt,value
2022-10-05T00:01:53.864Z,15.33
2022-10-05T00:04:24.132Z,14.00
2022-10-05T00:06:58.243Z,17.30
2022-10-05T00:09:31.686Z,17.57
2022-10-05T00:12:00.031Z,21.27
2022-10-05T00:14:31.440Z,16.50
2022-10-05T00:16:59.866Z,14.20
2022-10-05T00:19:32.033Z,15.77
2022-10-05T00:22:01.219Z,18.87
2022-10-05T00:24:31.379Z,17.73
2022-10-05T00:27:01.907Z,21.87
2022-10-05T00:29:30.012Z,14.23
2022-10-05T00:31:59.331Z,18.10
2022-10-05T00:34:27.479Z,11.50
2022-10-05T00:36:55.738Z,28.80
2022-10-05T00:39:23.862Z,13.50
2022-10-05T00:42:07.855Z,14.73
2022-10-05T00:44:42.328Z,14.30
2022-10-05T00:47:38.213Z,13.53
2022-10-05T00:50:33.600Z,19.13
2022-10-05T00:53:11.322Z,17.60
2022-10-05T00:55:50.599Z,18.23
2022-10-05T00:58:31.995Z,24.23
2022-10-05T01:01:09.092Z,16.03
2022-10-05T01:03:47.039Z,17.27
2022-10-05T01:06:24.178Z,18.20
2022-10-05T01:08:59.202Z,13.00
2022-10-05T01:11:32.604Z,15.90
2022-10-05T01:14:13.026Z,15.23
2022-10-05T01:16:51.320Z,12.43
2022-10-05T01:19:40.779Z,18.27
2022-10-05T01:22:21.070Z,13.37
2022-10-05T01:25:08.864Z,17.17
2022-10-05T01:27:42.627Z,13.57
2022-10-05T01:30:15.014Z,13.47
2022-10-05T01:32:49.886Z,12.27
2022-10-05T01:35:26.549Z,22.17
2022-10-05T01:38:04.995Z,17.10
2022-10-05T01:40:38.987Z,13.50
2022-10-05T01:43:15.845Z,17.43
2022-10-05T01:45:52.535Z,16.47
2022-10-05T01:48:28.203Z,18.20
2022-10-05T01:51:07.209Z,15.10
2022-10-05T01:53:48.125Z,20.87
2022-10-05T01:56:25.837Z,15.87
2022-10-05T01:59:06.047Z,18.40
2022-10-05T02:01:45.258Z,26.83
2022-10-05T02:04:43.333Z,21.13
2022-10-05T02:07:15.143Z,22.10
2022-10-05T02:09:49.303Z,17.60
2022-10-05T02:12:20.827Z,19.23
2022-10-05T02:14:58.660Z,21.80
2022-10-05T02:17:33.651Z,23.77
2022-10-05T02:20:06.878Z,28.73
2022-10-05T02:22:38.906Z,21.90
2022-10-05T02:25:12.517Z,22.40
2022-10-05T02:27:47.196Z,22.97
2022-10-05T02:30:19.008Z,26.43
2022-10-05T02:32:55.278Z,28.90
2022-10-05T02:35:23.759Z,19.63
2022-10-05T02:38:03.521Z,25.20
2022-10-05T02:40:43.207Z,23.40
2022-10-05T02:43:22.004Z,22.63
2022-10-05T02:46:00.537Z,23.57
2022-10-05T02:48:37.739Z,34.60
2022-10-05T02:51:16.547Z,20.13
2022-10-05T02:53:59.788Z,24.57
2022-10-05T02:56:34.418Z,26.07
2022-10-05T02:59:10.141Z,26.00
2022-10-05T03:01:47.131Z,25.53
2022-10-05T03:04:26.137Z,23.03
2022-10-05T03:07:04.713Z,27.13
2022-10-05T03:09:40.494Z,27.33
2022-10-05T03:12:17.231Z,27.93
2022-10-05T03:14:57.760Z,21.87
2022-10-05T03:17:31.901Z,28.83
2022-10-05T03:20:12.431Z,24.10
2022-10-05T03:22:50.702Z,34.23
2022-10-05T03:25:43.643Z,30.30
2022-10-05T03:28:18.877Z,22.33
2022-10-05T03:30:53.976Z,30.90
2022-10-05T03:33:36.257Z,30.73
2022-10-05T03:36:11.915Z,29.80
2022-10-05T03:38:44.692Z,26.07
2022-10-05T03:41:22.537Z,22.63
2022-10-05T03:44:17.018Z,22.10
2022-10-05T03:46:59.830Z,19.00
2022-10-05T03:49:39.961Z,24.80
2022-10-05T03:52:14.762Z,18.57
2022-10-05T03:54:47.062Z,24.53
2022-10-05T03:57:19.686Z,28.20
2022-10-05T03:59:58.420Z,21.57
2022-10-05T04:02:29.461Z,24.13
2022-10-05T04:05:04.339Z,18.07
2022-10-05T04:07:42.731Z,20.47
2022-10-05T04:10:18.489Z,21.30
2022-10-05T04:12:52.074Z,23.80
2022-10-05T04:15:28.007Z,21.47
2022-10-05T04:18:01.792Z,20.37
2022-10-05T04:20:38.028Z,26.80
2022-10-05T04:23:14.326Z,22.53
2022-10-05T04:25:47.277Z,19.50
2022-10-05T04:28:21.104Z,23.40
2022-10-05T04:30:52.338Z,23.13
2022-10-05T04:33:22.456Z,23.27
2022-10-05T04:36:09.927Z,27.90
2022-10-05T04:38:51.954Z,22.40
2022-10-05T04:41:45.915Z,20.73
2022-10-05T04:44:30.724Z,20.80
2022-10-05T04:47:15.779Z,28.63
2022-10-05T04:50:00.280Z,33.57
2022-10-05T04:52:36.834Z,23.30
2022-10-05T04:55:13.823Z,18.30
2022-10-05T04:57:49.379Z,20.90
2022-10-05T05:00:24.092Z,26.77
2022-10-05T05:03:18.118Z,29.17
2022-10-05T05:06:15.993Z,24.23
2022-10-05T05:09:04.321Z,22.20
2022-10-05T05:11:42.804Z,20.30
2022-10-05T05:14:46.649Z,30.97
2022-10-05T05:17:31.803Z,40.83
2022-10-05T05:20:10.713Z,34.83
2022-10-05T05:22:46.613Z,30.73
2022-10-05T05:25:32.174Z,28.60
2022-10-05T05:28:15.732Z,53.70
2022-10-05T05:30:49.037Z,73.43
2022-10-05T05:33:24.259Z,109.20
2022-10-05T05:36:26.095Z,86.37
2022-10-05T05:39:24.538Z,203.30
2022-10-05T05:42:20.693Z,109.20
2022-10-05T05:44:53.042Z,64.90
2022-10-05T05:47:28.637Z,86.23
2022-10-05T05:50:19.627Z,51.10
2022-10-05T05:52:56.685Z,177.37
2022-10-05T05:55:30.685Z,174.23
2022-10-05T05:58:10.370Z,193.27
2022-10-05T06:00:44.059Z,195.77
2022-10-05T06:03:17.666Z,34.50
2022-10-05T06:05:49.860Z,56.47
2022-10-05T06:08:25.726Z,26.77
2022-10-05T06:11:02.527Z,29.57
2022-10-05T06:13:35.499Z,27.87
2022-10-05T06:16:13.851Z,31.43
2022-10-05T06:18:47.798Z,49.50
2022-10-05T06:21:23.727Z,27.17
2022-10-05T06:24:00.173Z,31.83
2022-10-05T06:26:43.727Z,31.60
2022-10-05T06:29:20.347Z,23.97
2022-10-05T06:32:03.617Z,28.07
2022-10-05T06:34:52.183Z,35.30
2022-10-05T06:37:34.108Z,32.90
2022-10-05T06:40:12.438Z,31.83
2022-10-05T06:42:53.757Z,35.57
2022-10-05T06:45:59.210Z,33.10
2022-10-05T06:48:55.467Z,37.40
2022-10-05T06:51:57.151Z,38.97
2022-10-05T06:54:48.097Z,37.33
2022-10-05T06:57:42.896Z,30.73
2022-10-05T07:00:19.806Z,32.10
2022-10-05T07:02:56.899Z,29.40
2022-10-05T07:05:44.753Z,35.07
2022-10-05T07:08:18.141Z,30.03
2022-10-05T07:11:00.068Z,28.90
2022-10-05T07:13:48.598Z,30.83
2022-10-05T07:16:26.376Z,35.10
2022-10-05T07:19:12.362Z,30.50
2022-10-05T07:21:46.690Z,29.13
2022-10-05T07:24:29.197Z,35.83
2022-10-05T07:27:08.215Z,31.77
2022-10-05T07:29:45.197Z,30.57
2022-10-05T07:32:25.661Z,28.03
2022-10-05T07:35:05.078Z,33.50
2022-10-05T07:37:57.833Z,29.03
2022-10-05T07:40:39.251Z,29.60
2022-10-05T07:43:20.030Z,25.80
2022-10-05T07:45:53.676Z,29.17
2022-10-05T07:48:23.975Z,36.23
2022-10-05T07:51:02.567Z,30.50
2022-10-05T07:53:37.732Z,27.70
2022-10-05T07:56:15.682Z,35.83
2022-10-05T07:58:47.065Z,35.00
2022-10-05T08:01:20.795Z,30.00
2022-10-05T08:03:57.319Z,34.10
2022-10-05T08:06:40.035Z,28.50
2022-10-05T08:09:22.032Z,26.27
2022-10-05T08:11:56.811Z,22.60
2022-10-05T08:14:33.652Z,24.43
2022-10-05T08:17:05.135Z,24.63
2022-10-05T08:19:40.646Z,22.00
2022-10-05T08:22:13.501Z,24.07
2022-10-05T08:24:47.646Z,18.93
2022-10-05T08:27:21.090Z,19.10
2022-10-05T08:29:56.968Z,19.83
2022-10-05T08:32:28.531Z,18.97
2022-10-05T08:35:03.227Z,14.90
2022-10-05T08:37:35.572Z,24.00
2022-10-05T08:40:39.966Z,15.07
2022-10-05T08:43:22.135Z,15.53
2022-10-05T08:46:36.334Z,17.70
2022-10-05T08:49:38.910Z,18.70
2022-10-05T08:52:29.318Z,12.03
2022-10-05T08:55:39.330Z,12.90
2022-10-05T08:58:37.775Z,13.20
2022-10-05T09:01:15.748Z,15.00
2022-10-05T09:04:13.415Z,13.13
2022-10-05T09:07:03.558Z,13.73
2022-10-05T09:10:04.584Z,12.47
2022-10-05T09:12:57.215Z,13.47
2022-10-05T09:15:50.652Z,10.73
2022-10-05T09:18:50.944Z,12.73
2022-10-05T09:21:40.933Z,13.37
2022-10-05T09:24:23.793Z,19.77
2022-10-05T09:27:01.667Z,11.80
2022-10-05T09:29:54.972Z,16.47
2022-10-05T09:32:54.953Z,12.07
2022-10-05T09:35:58.193Z,12.30
2022-10-05T09:38:35.154Z,12.10
2022-10-05T09:41:46.865Z,17.07
2022-10-05T09:44:45.693Z,12.00
2022-10-05T09:47:35.400Z,12.83
2022-10-05T09:50:31.750Z,11.53
2022-10-05T09:53:40.727Z,14.07
2022-10-05T09:59:33.741Z,9.13
2022-10-05T10:02:22.132Z,10.07
2022-10-05T10:05:16.070Z,8.93
2022-10-05T10:07:59.981Z,10.87
2022-10-05T10:11:02.086Z,12.90
2022-10-05T10:14:01.658Z,10.27
2022-10-05T10:16:55.477Z,5.73
2022-10-05T10:19:52.253Z,13.60
2022-10-05T10:22:47.198Z,8.20
2022-10-05T10:25:34.574Z,7.90
2022-10-05T10:28:31.730Z,4.97
2022-10-05T10:31:19.337Z,5.20
2022-10-05T10:34:19.875Z,5.07
2022-10-05T10:37:10.929Z,5.73
2022-10-05T10:39:55.974Z,7.10
2022-10-05T10:42:36.720Z,5.90
2022-10-05T10:45:21.146Z,5.90
2022-10-05T10:47:59.846Z,6.50
2022-10-05T10:50:50.737Z,6.40
2022-10-05T10:53:43.082Z,5.93
2022-10-05T10:56:34.387Z,7.27
2022-10-05T10:59:30.846Z,5.30
2022-10-05T11:02:37.476Z,5.97
2022-10-05T11:05:33.071Z,4.63
2022-10-05T11:08:27.303Z,4.60
2022-10-05T11:11:17.786Z,5.93
2022-10-05T11:14:04.772Z,3.53
2022-10-05T11:17:06.458Z,4.97
2022-10-05T11:20:05.245Z,3.60
2022-10-05T11:22:51.318Z,3.50
2022-10-05T11:25:44.396Z,4.17
2022-10-05T11:28:41.306Z,4.77
2022-10-05T11:31:37.829Z,4.53
2022-10-05T11:34:32.606Z,3.80
2022-10-05T11:37:33.779Z,4.83
2022-10-05T11:40:59.085Z,3.83
2022-10-05T11:43:55.793Z,7.00
2022-10-05T11:46:29.234Z,6.60
2022-10-05T11:49:31.250Z,6.13
2022-10-05T11:52:07.791Z,5.60
2022-10-05T11:57:41.048Z,8.73
2022-10-05T12:00:19.112Z,5.60
2022-10-05T12:03:12.451Z,6.23
2022-10-05T12:05:52.958Z,7.80
2022-10-05T12:08:33.684Z,7.37
2022-10-05T12:11:13.435Z,5.90
2022-10-05T12:13:48.313Z,7.23
2022-10-05T12:16:24.043Z,6.40
2022-10-05T12:18:58.921Z,6.17
2022-10-05T12:21:37.643Z,6.90
2022-10-05T12:24:14.895Z,6.47
2022-10-05T12:26:48.435Z,5.63
2022-10-05T12:29:24.630Z,5.33
2022-10-05T12:32:01.139Z,5.23
2022-10-05T12:34:44.906Z,8.80
2022-10-05T12:37:39.087Z,5.57
2022-10-05T12:40:19.706Z,8.13
2022-10-05T12:42:55.782Z,5.50
2022-10-05T12:45:34.336Z,8.47
2022-10-05T12:48:22.080Z,5.13
2022-10-05T12:50:52.035Z,4.67
2022-10-05T12:53:29.838Z,5.27
2022-10-05T12:56:05.123Z,5.60
2022-10-05T12:58:42.776Z,8.53
2022-10-05T13:01:21.801Z,4.73
2022-10-05T13:03:59.011Z,8.30
2022-10-05T13:06:38.269Z,4.17
2022-10-05T13:09:13.854Z,4.40
2022-10-05T13:11:46.856Z,4.20
2022-10-05T13:14:24.495Z,4.03
2022-10-05T13:17:00.765Z,5.43
2022-10-05T13:19:40.596Z,4.20
2022-10-05T13:22:27.123Z,4.73
2022-10-05T13:25:09.839Z,3.93
2022-10-05T13:27:43.120Z,4.17
2022-10-05T13:30:15.539Z,4.37
2022-10-05T13:32:48.269Z,5.83
2022-10-05T13:35:31.282Z,6.73
2022-10-05T13:38:08.895Z,5.80
2022-10-05T13:40:43.932Z,3.57
2022-10-05T13:43:23.229Z,4.13
2022-10-05T13:45:57.144Z,5.10
2022-10-05T13:48:48.080Z,4.07
2022-10-05T13:51:22.890Z,3.83
2022-10-05T13:53:57.949Z,3.70
2022-10-05T13:56:31.674Z,5.37
2022-10-05T13:59:14.851Z,5.97
2022-10-05T14:01:50.013Z,2.90
2022-10-05T14:04:21.033Z,5.17
2022-10-05T14:06:52.552Z,6.00
2022-10-05T14:09:31.999Z,3.10
2022-10-05T14:12:15.840Z,6.30
2022-10-05T14:14:47.086Z,2.70
2022-10-05T14:17:18.242Z,3.27
2022-10-05T14:19:51.072Z,2.83
2022-10-05T14:22:24.846Z,2.87
2022-10-05T14:24:56.666Z,4.83
2022-10-05T14:27:27.626Z,5.40
2022-10-05T14:30:01.090Z,3.80
2022-10-05T14:32:32.839Z,2.70
2022-10-05T14:35:13.907Z,2.90
2022-10-05T14:37:51.658Z,2.73
2022-10-05T14:40:27.132Z,5.27
2022-10-05T14:42:56.010Z,2.33
2022-10-05T14:45:26.115Z,2.70
2022-10-05T14:48:00.212Z,3.00
2022-10-05T14:50:31.859Z,4.73
2022-10-05T14:53:16.499Z,3.83
2022-10-05T14:56:03.454Z,3.27
2022-10-05T14:58:46.546Z,2.63
2022-10-05T15:01:22.748Z,4.20
2022-10-05T15:04:00.287Z,2.30
2022-10-05T15:06:42.647Z,4.30
2022-10-05T15:09:38.662Z,4.30
2022-10-05T15:12:07.150Z,12.73
2022-10-05T15:14:38.509Z,5.70
2022-10-05T15:17:16.503Z,2.30
2022-10-05T15:19:56.402Z,2.83
2022-10-05T15:22:31.719Z,5.87
2022-10-05T15:25:12.468Z,6.53
2022-10-05T15:27:59.416Z,2.20
2022-10-05T15:30:27.855Z,3.20
2022-10-05T15:33:08.989Z,2.50
2022-10-05T15:35:55.651Z,6.43
2022-10-05T15:38:26.601Z,3.25
2022-10-05T15:41:10.232Z,3.93
2022-10-05T15:43:50.163Z,2.83
2022-10-05T15:46:23.283Z,4.63
2022-10-05T15:49:00.688Z,2.93
2022-10-05T15:51:43.558Z,4.40
2022-10-05T15:54:37.058Z,2.93
2022-10-05T15:57:14.666Z,12.57
2022-10-05T15:59:52.416Z,3.70
2022-10-05T16:02:29.406Z,9.00
2022-10-05T16:05:07.483Z,6.67
2022-10-05T16:08:01.159Z,5.13
2022-10-05T16:10:33.229Z,9.30
2022-10-05T16:13:19.155Z,4.73
2022-10-05T16:15:51.207Z,5.00
2022-10-05T16:18:40.572Z,12.07
2022-10-05T16:21:22.810Z,5.80
2022-10-05T16:24:06.273Z,3.67
2022-10-05T16:26:48.326Z,5.50
2022-10-05T16:29:25.050Z,4.97
2022-10-05T16:31:59.984Z,3.13
2022-10-05T16:34:38.023Z,3.97
2022-10-05T16:37:13.897Z,3.90
2022-10-05T16:39:53.679Z,4.53
2022-10-05T16:42:43.497Z,5.50
2022-10-05T16:45:45.098Z,4.10
2022-10-05T16:48:23.192Z,3.40
2022-10-05T16:51:14.153Z,5.20
2022-10-05T16:53:45.624Z,4.53
2022-10-05T16:56:17.972Z,6.23
2022-10-05T16:59:00.466Z,4.10
2022-10-05T17:01:45.544Z,4.80
2022-10-05T17:04:28.389Z,3.77
2022-10-05T17:07:26.323Z,3.93
2022-10-05T17:10:21.834Z,5.67
2022-10-05T17:13:02.455Z,3.77
2022-10-05T17:15:41.964Z,4.70
2022-10-05T17:18:28.223Z,4.50
2022-10-05T17:21:05.459Z,3.63
2022-10-05T17:23:40.767Z,3.80
2022-10-05T17:26:32.454Z,3.73
2022-10-05T17:29:10.648Z,6.60
2022-10-05T17:32:03.699Z,8.87
2022-10-05T17:34:35.322Z,5.37
2022-10-05T17:37:35.160Z,4.40
2022-10-05T17:40:35.039Z,4.47
2022-10-05T17:43:24.004Z,6.03
2022-10-05T17:45:58.082Z,3.80
2022-10-05T17:49:08.175Z,15.33
2022-10-05T17:52:17.329Z,7.37
2022-10-05T17:55:28.131Z,6.23
2022-10-05T17:57:59.907Z,4.60
2022-10-05T18:00:43.837Z,4.50
2022-10-05T18:03:34.006Z,4.57
2022-10-05T18:06:31.806Z,4.27
2022-10-05T18:09:38.678Z,7.33
2022-10-05T18:12:15.341Z,4.90
2022-10-05T18:15:02.037Z,4.73
2022-10-05T18:17:41.166Z,10.73
2022-10-05T18:20:18.174Z,8.90
2022-10-05T18:22:47.347Z,4.63
2022-10-05T18:25:30.940Z,4.60
2022-10-05T18:28:13.302Z,6.57
2022-10-05T18:31:05.152Z,9.33
2022-10-05T18:33:59.618Z,5.07
2022-10-05T18:36:56.474Z,6.00
2022-10-05T18:39:41.614Z,7.10
2022-10-05T18:42:20.251Z,7.20
2022-10-05T18:44:53.896Z,7.00
2022-10-05T18:47:31.474Z,5.00
2022-10-05T18:50:14.408Z,4.33
2022-10-05T18:53:08.336Z,8.87
2022-10-05T18:55:42.177Z,4.60
2022-10-05T18:58:19.023Z,5.67
2022-10-05T19:01:01.194Z,5.10
2022-10-05T19:03:36.801Z,4.50
2022-10-05T19:06:14.989Z,7.93
2022-10-05T19:08:52.219Z,5.10
2022-10-05T19:11:25.752Z,5.00
2022-10-05T19:14:05.983Z,6.20
2022-10-05T19:16:55.303Z,5.17
2022-10-05T19:19:39.621Z,4.03
2022-10-05T19:22:17.848Z,5.97
2022-10-05T19:24:57.789Z,3.90
2022-10-05T19:27:35.750Z,2.93
2022-10-05T19:30:15.568Z,6.30
2022-10-05T19:33:14.340Z,6.10
2022-10-05T19:35:58.545Z,7.67
2022-10-05T19:38:35.298Z,2.60
2022-10-05T19:41:13.444Z,9.40
2022-10-05T19:43:57.986Z,4.10
2022-10-05T19:46:43.003Z,5.40
2022-10-05T19:49:11.670Z,2.67
2022-10-05T19:51:51.029Z,3.70
2022-10-05T19:54:25.834Z,3.10
2022-10-05T19:56:54.947Z,2.63
2022-10-05T19:59:26.217Z,8.53
2022-10-05T20:01:58.226Z,2.50
2022-10-05T20:04:35.334Z,2.70
2022-10-05T20:07:03.994Z,4.50
2022-10-05T20:09:51.866Z,3.03
2022-10-05T20:12:22.593Z,10.40
2022-10-05T20:15:24.795Z,3.00
2022-10-05T20:18:11.777Z,7.10
2022-10-05T20:20:45.755Z,5.37
2022-10-05T20:23:21.623Z,4.30
2022-10-05T20:26:11.138Z,4.10
2022-10-05T20:28:39.808Z,3.03
2022-10-05T20:31:08.710Z,6.90
2022-10-05T20:33:40.543Z,11.27
2022-10-05T20:36:08.929Z,3.83
2022-10-05T20:38:40.809Z,3.53
2022-10-05T20:41:09.583Z,2.60
2022-10-05T20:43:39.338Z,3.53
2022-10-05T20:46:08.075Z,9.57
2022-10-05T20:48:36.602Z,5.40
2022-10-05T20:51:06.272Z,3.00
2022-10-05T20:53:34.658Z,3.73
2022-10-05T20:56:04.416Z,5.17
2022-10-05T20:58:32.579Z,2.80
2022-10-05T21:01:19.751Z,6.10
2022-10-05T21:03:48.328Z,5.10
2022-10-05T21:06:19.011Z,4.20
2022-10-05T21:08:47.238Z,3.27
2022-10-05T21:11:15.784Z,3.10
2022-10-05T21:13:45.210Z,3.83
2022-10-05T21:16:14.044Z,3.93
2022-10-05T21:18:42.799Z,3.90
2022-10-05T21:21:11.212Z,2.57
2022-10-05T21:23:40.684Z,4.40
2022-10-05T21:26:08.946Z,2.77
2022-10-05T21:28:37.157Z,2.90
2022-10-05T21:31:05.393Z,3.57
2022-10-05T21:33:33.620Z,3.27
2022-10-05T21:36:02.097Z,4.00
2022-10-05T21:38:30.624Z,2.97
2022-10-05T21:41:00.370Z,4.60
2022-10-05T21:43:29.098Z,3.20
2022-10-05T21:45:57.701Z,5.13
2022-10-05T21:48:27.103Z,3.27
2022-10-05T21:50:55.525Z,3.83
2022-10-05T21:53:29.026Z,4.27
2022-10-05T21:56:02.147Z,4.37
2022-10-05T21:58:33.031Z,6.90
2022-10-05T22:01:01.329Z,3.93
2022-10-05T22:03:29.509Z,3.13
2022-10-05T22:05:57.778Z,3.80
2022-10-05T22:08:28.477Z,4.03
2022-10-05T22:10:57.161Z,3.23
2022-10-05T22:13:26.576Z,2.73
2022-10-05T22:15:57.007Z,3.33
2022-10-05T22:18:26.831Z,4.60
2022-10-05T22:20:55.389Z,3.37
2022-10-05T22:23:23.507Z,10.30
2022-10-05T22:25:51.703Z,13.17
2022-10-05T22:28:19.959Z,4.40
2022-10-05T22:30:48.131Z,4.80
2022-10-05T22:33:17.612Z,4.17
2022-10-05T22:35:45.888Z,3.80
2022-10-05T22:38:14.040Z,3.20
2022-10-05T22:40:42.450Z,7.80
2022-10-05T22:43:10.610Z,3.53
2022-10-05T22:45:38.790Z,4.03
2022-10-05T22:48:07.144Z,3.43
2022-10-05T22:50:36.893Z,5.00
2022-10-05T22:53:05.148Z,3.60
2022-10-05T22:55:33.346Z,4.70
2022-10-05T22:58:02.811Z,4.73
2022-10-05T23:00:53.448Z,3.33
2022-10-05T23:03:19.547Z,3.20
2022-10-05T23:05:49.124Z,5.97
2022-10-05T23:08:17.251Z,5.63
2022-10-05T23:10:45.425Z,6.33
2022-10-05T23:13:13.603Z,3.67
2022-10-05T23:15:42.393Z,3.93
2022-10-05T23:18:10.559Z,3.90
2022-10-05T23:20:40.176Z,6.93
2022-10-05T23:23:09.664Z,6.90
2022-10-05T23:25:37.839Z,7.53
2022-10-05T23:28:06.033Z,4.00
2022-10-05T23:30:34.305Z,7.80
2022-10-05T23:33:02.937Z,3.67
2022-10-05T23:35:31.055Z,3.47
2022-10-05T23:38:00.427Z,3.53
2022-10-05T23:40:29.983Z,3.33
2022-10-05T23:42:58.446Z,4.57
2022-10-05T23:45:26.687Z,3.50
2022-10-05T23:47:54.858Z,6.73
2022-10-05T23:50:25.060Z,4.00
2022-10-05T23:52:53.248Z,5.13
2022-10-05T23:55:21.376Z,3.10
2022-10-05T23:57:50.903Z,6.20
